Time;durP1;ratioP1;P1;durP2;ratioP2;P2;SDS_P1;SDS_P2;PMS_P1;PMS_P2;Temp;Humidity;BMP_temperature;BMP_pressure;BME280_temperature;BME280_humidity;BME280_pressure;Samples;Min_cycle;Max_cycle;Signal;HPM_P1;HPM_P2
2022/04/04 00:01:15;;;;;;;6.38;2.50;;;3.70;99.90;;;;;;5012626;28;19922;-72
2022/04/04 00:03:40;;;;;;;6.05;2.50;;;3.70;99.90;;;;;;5013111;28;20042;-70
2022/04/04 00:06:06;;;;;;;;;;;3.70;99.90;;;;;;5013292;28;20115;-70
2022/04/04 00:08:33;;;;;;;5.40;2.60;;;3.70;99.90;;;;;;5012026;28;19929;-71
2022/04/04 00:11:00;;;;;;;5.03;2.70;;;3.80;99.90;;;;;;5044786;28;20095;-71
2022/04/04 00:13:27;;;;;;;5.30;2.67;;;3.80;99.90;;;;;;5012764;28;20125;-71
2022/04/04 00:15:56;;;;;;;5.53;3.10;;;3.90;99.90;;;;;;5044127;28;20054;-71
2022/04/04 00:18:21;;;;;;;9.90;3.50;;;4.00;99.90;;;;;;5012157;28;20041;-71
2022/04/04 00:20:50;;;;;;;6.05;2.85;;;4.00;99.90;;;;;;5012342;28;20069;-71
2022/04/04 00:23:16;;;;;;;;;;;4.10;99.90;;;;;;5013236;28;20088;-71
2022/04/04 00:25:43;;;;;;;8.00;2.90;;;4.20;99.90;;;;;;5012791;28;20365;-71
2022/04/04 00:28:09;;;;;;;7.03;3.25;;;4.20;99.90;;;;;;5011224;28;20053;-72
2022/04/04 00:30:35;;;;;;;;;;;4.20;99.90;;;;;;5012820;28;20416;-71
2022/04/04 00:33:01;;;;;;;6.15;3.33;;;4.20;99.90;;;;;;5011772;28;20016;-71
2022/04/04 00:35:26;;;;;;;;;;;4.20;99.90;;;;;;5011715;28;20474;-71
2022/04/04 00:37:53;;;;;;;7.43;4.07;;;4.30;99.90;;;;;;5044225;28;19930;-71
2022/04/04 00:40:19;;;;;;;8.38;4.07;;;4.30;99.90;;;;;;5012597;28;20049;-71
2022/04/04 00:42:47;;;;;;;6.75;4.00;;;4.30;99.90;;;;;;5012155;28;20046;-71
2022/04/04 00:45:12;;;;;;;;;;;4.30;99.90;;;;;;5045012;28;20046;-71
2022/04/04 00:47:38;;;;;;;6.32;3.58;;;4.30;99.90;;;;;;5012071;28;20012;-71
2022/04/04 00:50:04;;;;;;;;;;;4.40;99.90;;;;;;5012962;28;20120;-71
2022/04/04 00:52:30;;;;;;;8.82;4.30;;;4.40;99.90;;;;;;5014658;28;19927;-71
2022/04/04 00:54:56;;;;;;;8.30;4.53;;;4.40;99.90;;;;;;5015089;28;20499;-71
2022/04/04 00:57:22;;;;;;;;;;;4.50;99.90;;;;;;5016143;28;20088;-71
2022/04/04 00:59:49;;;;;;;8.27;4.75;;;4.60;99.90;;;;;;5016220;28;20290;-71
2022/04/04 01:02:15;;;;;;;9.15;4.63;;;4.60;99.90;;;;;;5014667;28;20046;-71
2022/04/04 01:04:41;;;;;;;;;;;4.60;99.90;;;;;;5015793;28;20052;-71
2022/04/04 01:07:07;;;;;;;9.93;4.70;;;4.60;99.90;;;;;;5014724;28;19991;-71
2022/04/04 01:09:33;;;;;;;;;;;4.70;99.90;;;;;;5016281;28;20481;-72
2022/04/04 01:12:07;;;;;;;9.70;4.72;;;4.70;99.90;;;;;;5015324;28;19929;-71
2022/04/04 01:14:41;;;;;;;11.05;5.70;;;4.70;99.90;;;;;;5015077;28;20041;-71
2022/04/04 01:17:08;;;;;;;9.30;5.78;;;4.80;99.90;;;;;;5015191;28;20048;-71
2022/04/04 01:19:34;;;;;;;13.25;6.47;;;4.80;99.90;;;;;;5015466;28;20054;-71
2022/04/04 01:22:00;;;;;;;11.95;7.40;;;4.80;99.90;;;;;;5014541;28;20382;-71
2022/04/04 01:24:26;;;;;;;;;;;4.80;99.90;;;;;;5047380;28;20192;-71
2022/04/04 01:26:53;;;;;;;12.35;7.05;;;4.90;99.90;;;;;;5015832;28;19975;-71
2022/04/04 01:29:20;;;;;;;11.15;6.65;;;5.00;99.90;;;;;;5013707;28;20064;-71
2022/04/04 01:31:46;;;;;;;11.35;6.43;;;5.00;99.90;;;;;;5015443;28;20038;-71
2022/04/04 01:34:12;;;;;;;11.02;7.05;;;5.00;99.90;;;;;;5014346;28;20493;-71
2022/04/04 01:36:37;;;;;;;;;;;5.10;99.90;;;;;;5015912;28;20048;-71
2022/04/04 01:39:03;;;;;;;13.68;6.45;;;5.00;99.90;;;;;;5013396;28;19928;-71
2022/04/04 01:41:29;;;;;;;14.30;8.32;;;5.10;99.90;;;;;;5047115;28;20500;-70
2022/04/04 01:43:55;;;;;;;;;;;5.10;99.90;;;;;;5015385;28;20054;-71
2022/04/04 01:46:24;;;;;;;11.15;6.32;;;5.10;99.90;;;;;;5012435;28;20295;-71
2022/04/04 01:48:50;;;;;;;13.50;7.35;;;5.10;99.90;;;;;;5014018;28;20133;-71
2022/04/04 01:51:15;;;;;;;;;;;5.10;99.90;;;;;;5014554;28;20057;-71
2022/04/04 01:53:41;;;;;;;14.50;6.40;;;5.20;99.90;;;;;;5013192;28;19925;-71
2022/04/04 01:56:07;;;;;;;;;;;5.20;99.90;;;;;;5015731;28;20450;-71
2022/04/04 01:58:33;;;;;;;12.18;6.70;;;5.10;99.90;;;;;;5013492;28;19975;-71
2022/04/04 02:01:01;;;;;;;;;;;5.20;99.90;;;;;;5013097;28;20050;-71
2022/04/04 02:03:37;;;;;;;14.63;7.53;;;5.20;99.90;;;;;;5013029;28;19921;-71
2022/04/04 02:06:09;;;;;;;16.10;7.60;;;5.10;99.90;;;;;;5015637;28;20050;-71
2022/04/04 02:08:34;;;;;;;;;;;5.10;99.90;;;;;;5014738;28;20044;-71
2022/04/04 02:11:02;;;;;;;13.43;7.60;;;5.10;99.90;;;;;;5014894;28;19957;-71
2022/04/04 02:13:28;;;;;;;10.23;6.10;;;5.10;99.90;;;;;;5013983;28;20096;-71
2022/04/04 02:16:01;;;;;;;14.63;7.35;;;5.20;99.90;;;;;;5012195;28;20489;-71
2022/04/04 02:18:27;;;;;;;13.02;8.45;;;5.10;99.90;;;;;;5014401;28;20050;-71
2022/04/04 02:20:53;;;;;;;12.60;7.65;;;5.00;99.90;;;;;;5046142;28;20053;-71
2022/04/04 02:23:20;;;;;;;;;;;5.00;99.90;;;;;;5047131;28;20045;-71
2022/04/04 02:25:47;;;;;;;14.73;8.23;;;5.00;99.90;;;;;;5013533;28;19943;-71
2022/04/04 02:28:14;;;;;;;12.07;7.60;;;5.00;99.90;;;;;;5014182;28;20121;-71
2022/04/04 02:30:40;;;;;;;14.93;8.40;;;5.00;99.90;;;;;;5014212;28;20137;-71
2022/04/04 02:33:06;;;;;;;16.15;8.40;;;5.10;99.90;;;;;;5013303;28;20049;-71
2022/04/04 02:35:32;;;;;;;;;;;5.20;99.90;;;;;;5013734;28;20457;-71
2022/04/04 02:37:58;;;;;;;16.00;8.18;;;5.40;99.90;;;;;;5012984;28;19925;-71
2022/04/04 02:40:24;;;;;;;;;;;5.50;99.90;;;;;;5013382;28;20149;-71
2022/04/04 02:42:50;;;;;;;13.18;6.80;;;5.50;99.90;;;;;;5014061;28;20724;-71
2022/04/04 02:45:15;;;;;;;;;;;5.70;99.90;;;;;;5037641;28;20050;-71
2022/04/04 02:47:42;;;;;;;13.43;7.57;;;5.80;99.90;;;;;;4993408;28;19930;-71
2022/04/04 02:50:11;;;;;;;15.82;8.02;;;5.60;99.90;;;;;;4994209;28;20379;-72
2022/04/04 02:52:36;;;;;;;14.52;7.72;;;5.80;99.90;;;;;;4994327;28;20073;-71
2022/04/04 02:57:49;;;;;;;16.13;8.10;;;5.80;99.90;;;;;;5025914;28;19921;-71
2022/04/04 03:00:17;;;;;;;16.23;8.02;;;5.80;99.90;;;;;;5003741;28;20501;-71
2022/04/04 03:02:48;;;;;;;13.75;6.85;;;5.80;99.90;;;;;;5013020;28;20054;-71
2022/04/04 03:05:17;;;;;;;11.38;6.32;;;5.90;99.90;;;;;;5012676;28;20053;-71
2022/04/04 03:07:43;;;;;;;12.68;5.53;;;5.90;99.90;;;;;;5012748;28;20379;-71
2022/04/04 03:10:12;;;;;;;;;;;6.00;99.90;;;;;;5011067;28;20052;-72
2022/04/04 03:12:45;;;;;;;10.10;5.10;;;6.80;99.90;;;;;;5013791;28;19921;-72
2022/04/04 03:15:17;;;;;;;11.15;6.10;;;6.00;99.90;;;;;;5013829;28;20046;-72
2022/04/04 03:17:44;;;;;;;16.70;6.07;;;6.00;99.90;;;;;;5013042;28;20460;-72
2022/04/04 03:20:14;;;;;;;12.35;6.20;;;6.00;99.90;;;;;;5007743;28;20050;-72
2022/04/04 03:22:44;;;;;;;12.13;5.32;;;6.00;99.90;;;;;;4993871;28;20521;-72
2022/04/04 03:25:12;;;;;;;8.32;5.50;;;5.90;99.90;;;;;;4993373;28;20046;-72
2022/04/04 03:27:41;;;;;;;13.70;5.82;;;6.00;99.90;;;;;;4993610;28;20042;-71
2022/04/04 03:30:09;;;;;;;15.38;6.95;;;5.90;99.90;;;;;;4994013;28;20038;-71
2022/04/04 03:32:35;;;;;;;11.23;6.32;;;5.90;99.90;;;;;;5024272;28;20057;-72
2022/04/04 03:35:01;;;;;;;;;;;5.80;99.90;;;;;;5026706;28;20034;-72
2022/04/04 03:37:27;;;;;;;13.27;5.90;;;5.80;99.90;;;;;;4993961;28;20012;-73
2022/04/04 03:39:53;;;;;;;14.68;6.53;;;5.70;99.90;;;;;;5013185;28;20352;-71
2022/04/04 03:42:19;;;;;;;;;;;5.60;99.90;;;;;;5013283;28;20514;-72
2022/04/04 03:44:45;;;;;;;11.75;6.25;;;5.60;99.90;;;;;;5012948;28;20317;-71
2022/04/04 03:47:12;;;;;;;11.82;5.93;;;5.60;99.90;;;;;;5013399;28;20128;-71
2022/04/04 03:49:38;;;;;;;;;;;5.70;99.90;;;;;;5013307;28;20038;-71
2022/04/04 03:52:07;;;;;;;14.57;6.45;;;5.60;99.90;;;;;;5012903;28;19921;-71
2022/04/04 03:54:34;;;;;;;17.25;7.78;;;5.50;99.90;;;;;;5027994;28;20049;-72
2022/04/04 03:57:00;;;;;;;14.40;6.53;;;5.50;99.90;;;;;;4995438;28;20473;-71
2022/04/04 03:59:32;;;;;;;17.73;7.85;;;5.40;99.90;;;;;;5015194;28;20086;-71
2022/04/04 04:01:58;;;;;;;12.55;6.93;;;6.40;99.90;;;;;;4994563;28;20397;-72
2022/04/04 04:04:23;;;;;;;;;;;5.40;99.90;;;;;;4995219;28;20037;-72
2022/04/04 04:06:51;;;;;;;15.05;7.15;;;5.40;99.90;;;;;;5006329;28;19925;-71
2022/04/04 04:09:17;;;;;;;15.55;6.93;;;5.40;99.90;;;;;;5001300;28;20074;-72
2022/04/04 04:11:46;;;;;;;;;;;5.40;99.90;;;;;;5009579;28;20065;-72
2022/04/04 04:14:12;;;;;;;11.77;6.38;;;5.40;99.90;;;;;;5017165;28;19952;-71
2022/04/04 04:16:37;;;;;;;;;;;5.40;99.90;;;;;;5014494;28;20034;-71
2022/04/04 04:19:03;;;;;;;14.65;6.53;;;5.30;99.90;;;;;;5015087;28;19963;-72
2022/04/04 04:21:28;;;;;;;11.35;6.13;;;5.40;99.90;;;;;;4998034;28;20401;-71
2022/04/04 04:23:54;;;;;;;;;;;5.40;99.90;;;;;;4995342;28;20046;-71
2022/04/04 04:26:23;;;;;;;12.13;5.45;;;5.30;99.90;;;;;;5015605;28;19992;-72
2022/04/04 04:28:49;;;;;;;9.43;5.47;;;5.30;99.90;;;;;;4998587;28;20482;-72
2022/04/04 04:31:21;;;;;;;;;;;5.20;99.90;;;;;;5017180;28;20049;-71
2022/04/04 04:33:46;;;;;;;10.27;4.90;;;5.20;99.90;;;;;;5016698;28;19975;-72
2022/04/04 04:36:12;;;;;;;;;;;5.30;99.90;;;;;;4999089;28;20049;-71
2022/04/04 04:38:38;;;;;;;9.38;4.95;;;5.20;99.90;;;;;;4988234;28;19929;-71
2022/04/04 04:41:03;;;;;;;;;;;5.30;99.90;;;;;;4979727;28;20058;-71
2022/04/04 04:43:35;;;;;;;7.35;4.80;;;5.30;99.90;;;;;;4996651;28;20432;-71
2022/04/04 04:46:01;;;;;;;12.57;4.90;;;5.30;99.90;;;;;;4979673;28;20386;-71
2022/04/04 04:48:26;;;;;;;;;;;5.20;99.90;;;;;;4979115;28;20057;-72
2022/04/04 04:50:52;;;;;;;7.97;4.05;;;5.20;99.90;;;;;;4996807;28;19921;-72
2022/04/04 04:53:17;;;;;;;8.52;3.22;;;5.30;99.90;;;;;;4979184;28;20069;-71
2022/04/04 04:55:43;;;;;;;;;;;5.20;99.90;;;;;;4996318;28;20086;-71
2022/04/04 04:58:09;;;;;;;16.42;4.63;;;5.10;99.90;;;;;;4996546;28;19921;-72
2022/04/04 05:00:35;;;;;;;;;;;5.10;99.90;;;;;;4979204;28;20054;-71
2022/04/04 05:05:46;;;;;;;6.90;2.83;;;5.00;99.90;;;;;;4993524;28;20058;-71
2022/04/04 05:08:12;;;;;;;7.13;2.60;;;5.00;99.90;;;;;;4979021;28;20062;-70
2022/04/04 05:10:37;;;;;;;;;;;4.90;99.90;;;;;;4996461;28;20509;-72
2022/04/04 05:13:03;;;;;;;5.72;2.35;;;4.90;99.90;;;;;;4997992;28;19947;-70
2022/04/04 05:15:29;;;;;;;;;;;4.80;99.90;;;;;;4977774;28;20041;-71
2022/04/04 05:17:55;;;;;;;8.18;2.67;;;4.80;99.90;;;;;;4994943;28;20274;-71
2022/04/04 05:20:21;;;;;;;;;;;4.70;99.90;;;;;;4978689;28;20042;-72
2022/04/04 05:22:47;;;;;;;7.90;1.92;;;4.70;99.90;;;;;;4995717;28;19921;-73
2022/04/04 05:25:14;;;;;;;11.30;2.00;;;4.60;99.90;;;;;;4977607;28;20053;-72
2022/04/04 05:27:40;;;;;;;3.35;1.50;;;4.60;99.90;;;;;;4995282;28;20050;-75
2022/04/04 05:30:07;;;;;;;4.38;1.80;;;4.70;99.90;;;;;;4977865;28;20455;-73
2022/04/04 05:32:33;;;;;;;6.78;1.95;;;4.70;99.90;;;;;;4977697;28;20057;-76
2022/04/04 05:34:58;;;;;;;;;;;4.60;99.90;;;;;;4995978;28;20034;-73
2022/04/04 05:37:25;;;;;;;4.85;2.30;;;4.70;99.90;;;;;;4994641;28;19948;-74
2022/04/04 05:39:51;;;;;;;7.82;2.53;;;4.60;99.90;;;;;;4997365;28;20096;-73
2022/04/04 05:42:17;;;;;;;6.95;2.60;;;4.60;99.90;;;;;;4997419;28;20049;-77
2022/04/04 05:44:42;;;;;;;;;;;4.70;99.90;;;;;;4999633;28;20041;-75
2022/04/04 05:47:11;;;;;;;4.90;2.15;;;4.70;99.90;;;;;;5025102;28;19928;-73
2022/04/04 05:49:37;;;;;;;3.67;1.70;;;4.70;99.90;;;;;;5006201;28;20046;-76
2022/04/04 05:52:03;;;;;;;;;;;5.50;99.90;;;;;;5002218;28;20037;-73
2022/04/04 05:54:29;;;;;;;3.78;2.22;;;4.80;99.90;;;;;;5014362;28;20404;-73
2022/04/04 05:56:58;;;;;;;;;;;4.80;99.90;;;;;;4997598;28;20125;-72
2022/04/04 05:59:24;;;;;;;6.38;2.95;;;4.80;99.90;;;;;;4994577;28;20319;-73
2022/04/04 06:01:50;;;;;;;7.95;2.85;;;4.80;99.90;;;;;;5010576;28;20084;-72
2022/04/04 06:04:15;;;;;;;;;;;4.80;99.90;;;;;;4996259;28;20050;-73
2022/04/04 06:06:41;;;;;;;8.80;3.67;;;4.90;99.90;;;;;;5022660;28;19932;-72
2022/04/04 06:09:06;;;;;;;;;;;5.00;99.90;;;;;;5023111;28;20042;-74
2022/04/04 06:11:32;;;;;;;13.60;4.75;;;5.10;99.90;;;;;;5013962;28;19929;-73
2022/04/04 06:14:00;;;;;;;;;;;5.10;99.90;;;;;;5013165;28;20053;-73
2022/04/04 06:16:29;;;;;;;8.20;4.78;;;5.20;99.90;;;;;;5013408;28;20228;-76
2022/04/04 06:18:54;;;;;;;12.32;5.68;;;5.60;99.90;;;;;;4996451;28;20060;-74
2022/04/04 06:21:20;;;;;;;;;;;5.30;99.90;;;;;;5013513;28;20037;-73
2022/04/04 06:23:46;;;;;;;13.93;6.05;;;5.40;99.90;;;;;;4996209;28;19967;-76
2022/04/04 06:26:12;;;;;;;;;;;5.40;99.90;;;;;;4997407;28;20053;-77
2022/04/04 06:28:38;;;;;;;16.23;5.82;;;5.40;99.90;;;;;;4996380;28;19943;-71
2022/04/04 06:31:04;;;;;;;;;;;5.70;99.90;;;;;;4997059;28;20530;-72
2022/04/04 06:33:30;;;;;;;12.30;6.80;;;5.40;99.90;;;;;;4996727;28;19927;-72
2022/04/04 06:35:56;;;;;;;13.88;6.50;;;5.50;99.90;;;;;;4996347;28;20489;-72
2022/04/04 06:38:22;;;;;;;;;;;5.50;99.90;;;;;;5021778;28;20640;-72
2022/04/04 06:40:49;;;;;;;15.10;5.60;;;5.50;99.90;;;;;;4996202;28;19928;-72
2022/04/04 06:43:35;;;;;;;15.13;6.07;;;5.50;99.90;;;;;;4996425;28;20049;-72
2022/04/04 06:46:00;;;;;;;12.95;5.30;;;5.50;99.90;;;;;;5013291;28;20054;-71
2022/04/04 06:48:26;;;;;;;;;;;5.70;99.90;;;;;;4995351;28;20555;-70
2022/04/04 06:50:52;;;;;;;13.50;5.90;;;5.60;99.90;;;;;;4996790;28;19957;-73
2022/04/04 06:53:21;;;;;;;;;;;5.60;99.90;;;;;;5013677;28;20092;-73
2022/04/04 06:55:47;;;;;;;10.88;5.20;;;5.60;99.90;;;;;;5013270;28;20456;-71
2022/04/04 06:58:13;;;;;;;;;;;5.60;99.90;;;;;;5014121;28;20489;-71
2022/04/04 07:00:39;;;;;;;13.63;5.97;;;5.60;99.90;;;;;;5003587;28;19921;-70
2022/04/04 07:03:07;;;;;;;10.20;5.07;;;5.50;99.90;;;;;;5025379;28;20045;-70
2022/04/04 07:05:33;;;;;;;12.77;5.88;;;5.60;99.90;;;;;;5000317;28;20069;-70
2022/04/04 07:07:58;;;;;;;;;;;5.80;99.90;;;;;;4996080;28;20081;-71
2022/04/04 07:10:24;;;;;;;10.80;5.72;;;5.70;99.90;;;;;;5013073;28;19929;-73
2022/04/04 07:12:50;;;;;;;;;;;5.70;99.90;;;;;;5014257;28;20120;-70
2022/04/04 07:15:15;;;;;;;16.05;6.15;;;5.70;99.90;;;;;;5013041;28;19944;-72
2022/04/04 07:17:43;;;;;;;15.15;6.25;;;5.70;99.90;;;;;;4997229;28;20085;-71
2022/04/04 07:20:10;;;;;;;14.77;5.35;;;5.70;99.90;;;;;;4997929;28;20060;-71
2022/04/04 07:22:41;;;;;;;16.15;5.53;;;5.80;99.90;;;;;;5015090;28;20053;-72
2022/04/04 07:25:07;;;;;;;15.35;4.88;;;5.70;99.90;;;;;;4996703;28;20161;-71
2022/04/04 07:27:34;;;;;;;11.75;5.22;;;5.80;99.90;;;;;;5013148;28;20046;-72
2022/04/04 07:29:59;;;;;;;11.27;5.00;;;5.80;99.90;;;;;;4994815;28;20594;-72
2022/04/04 07:32:25;;;;;;;;;;;5.80;99.90;;;;;;5003502;28;20061;-71
2022/04/04 07:34:51;;;;;;;9.50;5.10;;;5.80;99.90;;;;;;5015222;28;19921;-72
2022/04/04 07:37:16;;;;;;;13.10;4.70;;;5.80;99.90;;;;;;5014731;28;20045;-72
2022/04/04 07:39:42;;;;;;;13.50;5.20;;;5.90;99.90;;;;;;5032096;28;20052;-71
2022/04/04 07:42:08;;;;;;;;;;;5.90;99.90;;;;;;5033438;28;20562;-71
2022/04/04 07:44:34;;;;;;;9.75;4.50;;;5.90;99.90;;;;;;5014089;28;19925;-72
2022/04/04 07:47:00;;;;;;;11.73;4.63;;;5.90;99.90;;;;;;4997483;28;20054;-73
2022/04/04 07:49:26;;;;;;;;;;;5.90;99.90;;;;;;4997379;28;20132;-72
2022/04/04 07:51:52;;;;;;;8.27;4.30;;;5.90;99.90;;;;;;4994720;28;19929;-73
2022/04/04 07:54:18;;;;;;;9.48;4.10;;;5.90;99.90;;;;;;5006813;28;20567;-73
2022/04/04 07:56:43;;;;;;;;;;;6.00;99.90;;;;;;5004118;28;20045;-78
2022/04/04 07:59:12;;;;;;;8.93;3.85;;;6.00;99.90;;;;;;5015107;28;19944;-79
2022/04/04 08:01:38;;;;;;;7.50;4.05;;;6.00;99.90;;;;;;4996257;28;20062;-79
2022/04/04 08:04:04;;;;;;;;;;;7.00;99.90;;;;;;4996807;28;20042;-81
2022/04/04 08:06:30;;;;;;;8.13;3.95;;;7.10;99.90;;;;;;5000773;28;19928;-78
2022/04/04 08:08:56;;;;;;;;;;;6.00;99.90;;;;;;5004303;28;20042;-82
2022/04/04 08:11:22;;;;;;;11.32;4.05;;;6.10;99.90;;;;;;5007071;28;20333;-80
2022/04/04 08:13:50;;;;;;;;;;;6.10;99.90;;;;;;5019700;28;20096;-81
2022/04/04 08:16:16;;;;;;;9.50;3.67;;;6.10;99.90;;;;;;5012511;28;19921;-84
2022/04/04 08:18:48;;;;;;;;;;;6.10;99.90;;;;;;4995287;28;20108;-77
2022/04/04 08:21:15;;;;;;;8.25;3.10;;;6.10;99.90;;;;;;5023856;28;20367;-78
2022/04/04 08:23:42;;;;;;;8.23;4.13;;;6.10;99.90;;;;;;5032592;28;20077;-74
2022/04/04 08:26:08;;;;;;;9.77;4.03;;;6.20;99.90;;;;;;5013939;28;20100;-77
2022/04/04 08:28:33;;;;;;;;;;;6.20;99.90;;;;;;5003692;28;20509;-76
2022/04/04 08:30:59;;;;;;;10.45;2.97;;;6.20;99.90;;;;;;5017208;28;19921;-77
2022/04/04 08:33:24;;;;;;;;;;;6.20;99.90;;;;;;5005274;28;20436;-79
2022/04/04 08:35:53;;;;;;;12.75;3.20;;;6.30;99.90;;;;;;5013436;28;20392;-80
2022/04/04 08:38:21;;;;;;;11.65;3.80;;;6.30;99.90;;;;;;5012269;28;20190;-81
2022/04/04 08:40:50;;;;;;;14.07;3.35;;;6.40;99.90;;;;;;5020181;28;20037;-81
2022/04/04 08:43:20;;;;;;;13.68;3.22;;;6.30;99.90;;;;;;5025580;28;20076;-78
2022/04/04 08:45:48;;;;;;;12.13;3.88;;;6.40;99.90;;;;;;5002198;28;20037;-76
2022/04/04 08:48:16;;;;;;;9.43;3.35;;;6.40;99.90;;;;;;5007802;28;20576;-79
2022/04/04 08:50:42;;;;;;;10.20;3.38;;;6.40;99.90;;;;;;5019002;28;20525;-73
2022/04/04 08:53:11;;;;;;;11.80;3.22;;;6.50;99.90;;;;;;4996641;28;20475;-76
2022/04/04 08:55:37;;;;;;;9.32;2.83;;;6.50;99.90;;;;;;5031091;28;20042;-75
2022/04/04 08:58:02;;;;;;;;;;;6.50;99.90;;;;;;5031562;28;20064;-73
2022/04/04 09:00:29;;;;;;;5.75;2.60;;;6.60;99.90;;;;;;5031994;28;19925;-72
2022/04/04 09:03:02;;;;;;;13.63;3.20;;;6.60;99.90;;;;;;5013965;28;20049;-75
2022/04/04 09:05:30;;;;;;;7.68;3.00;;;6.60;99.90;;;;;;5023232;28;20041;-77
2022/04/04 09:08:00;;;;;;;11.40;2.58;;;6.60;99.90;;;;;;5020209;28;20053;-78
2022/04/04 09:10:37;;;;;;;10.43;2.75;;;6.70;99.90;;;;;;5013252;28;20397;-74
2022/04/04 09:13:06;;;;;;;11.85;2.55;;;6.70;99.90;;;;;;5035878;28;20060;-73
2022/04/04 09:15:58;;;;;;;9.25;2.40;;;6.70;99.90;;;;;;5000761;28;20050;-74
2022/04/04 09:18:41;;;;;;;9.18;3.53;;;6.70;99.90;;;;;;4997876;28;20482;-73
2022/04/04 09:21:14;;;;;;;10.85;2.65;;;6.80;99.90;;;;;;5017763;28;20038;-76
2022/04/04 09:23:46;;;;;;;7.13;2.80;;;6.80;99.90;;;;;;5017158;28;20073;-72
2022/04/04 09:26:30;;;;;;;8.52;2.40;;;6.80;99.90;;;;;;5035181;28;20080;-73
2022/04/04 09:28:57;;;;;;;11.07;2.83;;;6.80;99.90;;;;;;5030380;28;20361;-71
2022/04/04 09:31:24;;;;;;;9.00;2.50;;;6.80;99.90;;;;;;5016082;28;20041;-73
2022/04/04 09:33:51;;;;;;;9.82;2.50;;;6.90;99.90;;;;;;5017872;28;20465;-83
2022/04/04 09:36:16;;;;;;;8.43;2.53;;;6.90;99.90;;;;;;5012684;28;20081;-76
2022/04/04 09:38:43;;;;;;;;;;;6.90;99.90;;;;;;4995574;28;20093;-77
2022/04/04 09:41:14;;;;;;;5.25;2.47;;;6.90;99.90;;;;;;4995894;28;19921;-76
2022/04/04 09:43:49;;;;;;;12.10;2.70;;;6.90;99.90;;;;;;4977798;28;20046;-79
2022/04/04 09:46:15;;;;;;;11.50;2.70;;;6.90;99.90;;;;;;5012317;28;20054;-77
2022/04/04 09:48:59;;;;;;;;;;;6.90;99.90;;;;;;5013151;28;20046;-77
2022/04/04 09:51:45;;;;;;;9.43;2.40;;;6.90;99.90;;;;;;5016273;28;19927;-74
2022/04/04 09:54:14;;;;;;;9.35;2.92;;;6.90;99.90;;;;;;5031302;28;20033;-74
2022/04/04 09:56:47;;;;;;;7.93;2.00;;;6.90;99.90;;;;;;5035210;28;20096;-74
2022/04/04 09:59:17;;;;;;;11.63;2.38;;;7.00;99.90;;;;;;5033970;28;20041;-73
2022/04/04 10:01:46;;;;;;;6.10;2.10;;;7.00;99.90;;;;;;5002626;28;20059;-72
2022/04/04 10:04:13;;;;;;;8.10;2.53;;;7.00;99.90;;;;;;5013770;28;20058;-72
2022/04/04 10:06:40;;;;;;;6.72;1.70;;;7.00;99.90;;;;;;4996190;28;20736;-73
2022/04/04 10:09:06;;;;;;;5.43;1.92;;;7.10;99.90;;;;;;5013893;28;20444;-73
2022/04/04 10:11:36;;;;;;;6.18;1.52;;;7.10;99.90;;;;;;5026578;28;20064;-74
2022/04/04 10:14:02;;;;;;;8.60;2.17;;;7.20;99.90;;;;;;4996756;28;20054;-74
2022/04/04 10:16:28;;;;;;;;;;;7.30;99.90;;;;;;4997871;28;20107;-74
2022/04/04 10:18:55;;;;;;;7.33;2.23;;;7.20;99.90;;;;;;4997402;28;19921;-73
2022/04/04 10:21:27;;;;;;;4.88;1.67;;;7.20;99.90;;;;;;5015584;28;20284;-74
2022/04/04 10:23:59;;;;;;;4.38;1.77;;;7.30;99.90;;;;;;4997637;28;20084;-82
2022/04/04 10:26:31;;;;;;;6.55;1.92;;;7.30;99.90;;;;;;5014544;28;20045;-76
2022/04/04 10:29:15;;;;;;;4.60;1.73;;;7.20;99.90;;;;;;4997230;28;20121;-74
2022/04/04 10:31:53;;;;;;;6.75;1.73;;;7.30;99.90;;;;;;5014851;28;20046;-73
2022/04/04 10:34:25;;;;;;;5.78;1.45;;;7.30;99.90;;;;;;5012774;28;20038;-75
2022/04/04 10:37:06;;;;;;;8.10;2.42;;;7.30;99.90;;;;;;5014193;28;20140;-78
2022/04/04 10:39:49;;;;;;;5.55;1.77;;;7.30;99.90;;;;;;4995753;28;20551;-74
2022/04/04 10:42:41;;;;;;;5.43;1.52;;;7.80;99.90;;;;;;5013589;28;20493;-80
2022/04/04 10:45:18;;;;;;;6.60;2.00;;;7.40;99.90;;;;;;5013312;28;20041;-74
2022/04/04 10:47:47;;;;;;;5.05;1.67;;;7.50;99.90;;;;;;4996908;28;20048;-75
2022/04/04 10:50:23;;;;;;;6.47;3.25;;;7.50;99.90;;;;;;4995550;28;20481;-73
2022/04/04 10:52:50;;;;;;;5.05;1.77;;;7.50;99.90;;;;;;5024084;28;20390;-73
2022/04/04 10:55:30;;;;;;;4.50;2.30;;;7.50;99.90;;;;;;5014561;28;20048;-73
2022/04/04 10:57:59;;;;;;;6.65;2.03;;;7.50;99.90;;;;;;5023586;28;20052;-72
2022/04/04 11:00:53;;;;;;;4.70;1.95;;;7.50;99.90;;;;;;5016715;28;20073;-72
2022/04/04 11:03:33;;;;;;;4.97;1.60;;;7.60;99.90;;;;;;5013379;28;20053;-72
2022/04/04 11:09:14;;;;;;;6.33;2.13;;;7.60;99.90;;;;;;5018652;28;20413;-72
2022/04/04 11:11:49;;;;;;;5.18;2.10;;;7.70;99.90;;;;;;5023268;28;20056;-70
2022/04/04 11:14:42;;;;;;;6.30;2.00;;;7.80;99.90;;;;;;4997306;28;20046;-74
2022/04/04 11:17:18;;;;;;;5.85;2.00;;;7.80;99.90;;;;;;4995237;28;20050;-74
2022/04/04 11:20:13;;;;;;;3.90;2.30;;;7.80;99.90;;;;;;4995705;28;20053;-75
2022/04/04 11:22:46;;;;;;;5.45;2.45;;;7.80;99.90;;;;;;4980224;28;20049;-72
2022/04/04 11:25:21;;;;;;;4.43;2.50;;;7.80;99.90;;;;;;5006384;28;20132;-73
2022/04/04 11:27:50;;;;;;;5.03;2.85;;;7.80;99.90;;;;;;5032844;28;20045;-71
2022/04/04 11:30:24;;;;;;;9.02;3.03;;;7.80;99.90;;;;;;4998955;28;20096;-74
2022/04/04 11:32:57;;;;;;;8.30;3.20;;;7.90;99.90;;;;;;5012505;28;20125;-71
2022/04/04 11:35:31;;;;;;;9.73;3.38;;;7.90;99.90;;;;;;5010249;28;20056;-72
2022/04/04 11:38:06;;;;;;;5.95;2.70;;;7.90;99.90;;;;;;5011335;28;20064;-72
2022/04/04 11:40:37;;;;;;;7.40;3.55;;;7.90;99.90;;;;;;5012116;28;20050;-75
2022/04/04 11:43:14;;;;;;;12.05;3.65;;;8.00;99.90;;;;;;5004107;28;20392;-74
2022/04/04 11:45:42;;;;;;;9.98;3.55;;;8.00;99.90;;;;;;4995633;28;20049;-71
2022/04/04 11:48:17;;;;;;;11.63;4.53;;;8.00;99.90;;;;;;5012539;28;20049;-74
2022/04/04 11:50:44;;;;;;;8.27;3.22;;;8.10;99.90;;;;;;5012567;28;20438;-73
2022/04/04 11:53:25;;;;;;;8.13;3.58;;;8.00;99.90;;;;;;4994985;28;20099;-74
2022/04/04 11:56:02;;;;;;;9.30;3.55;;;8.10;99.90;;;;;;5009344;28;20125;-72
2022/04/04 11:58:29;;;;;;;7.95;3.60;;;8.10;99.90;;;;;;4992745;28;20046;-72
2022/04/04 12:01:21;;;;;;;10.15;4.07;;;8.10;99.90;;;;;;4994570;28;20092;-71
2022/04/04 12:04:07;;;;;;;8.57;3.67;;;8.20;99.90;;;;;;5020401;28;20056;-72
2022/04/04 12:06:56;;;;;;;7.80;4.05;;;8.20;99.90;;;;;;4994267;28;20058;-73
2022/04/04 12:09:29;;;;;;;9.70;3.80;;;8.30;99.90;;;;;;5011876;28;20052;-73
2022/04/04 12:12:08;;;;;;;9.63;3.67;;;8.20;99.90;;;;;;5012292;28;20050;-74
2022/04/04 12:14:39;;;;;;;7.80;3.55;;;8.30;99.90;;;;;;5010604;28;20189;-69
2022/04/04 12:17:07;;;;;;;6.70;3.30;;;8.40;99.90;;;;;;5009053;28;20049;-71
2022/04/04 12:19:43;;;;;;;13.68;4.97;;;8.40;99.90;;;;;;5015897;28;20152;-72
2022/04/04 12:24:55;;;;;;;7.93;3.20;;;8.40;99.90;;;;;;5012609;28;20082;-72
2022/04/04 12:27:21;;;;;;;13.85;4.20;;;8.50;99.90;;;;;;4993253;28;20046;-71
2022/04/04 12:29:46;;;;;;;;;;;8.60;99.90;;;;;;4995083;28;20049;-72
2022/04/04 12:32:19;;;;;;;9.15;4.55;;;8.60;99.90;;;;;;4990854;28;20004;-75
2022/04/04 12:35:02;;;;;;;10.30;3.58;;;8.60;99.90;;;;;;5016801;28;20136;-71
2022/04/04 12:37:36;;;;;;;8.82;4.30;;;8.70;99.90;;;;;;5015113;28;20034;-71
2022/04/04 12:40:25;;;;;;;8.00;3.95;;;8.70;99.90;;;;;;4972429;28;20051;-72
2022/04/04 12:43:03;;;;;;;14.07;5.10;;;8.80;99.90;;;;;;4965256;28;20045;-72
2022/04/04 12:45:32;;;;;;;13.57;4.80;;;8.80;99.90;;;;;;4986648;28;20085;-72
2022/04/04 12:47:57;;;;;;;18.00;4.32;;;8.80;99.90;;;;;;4964157;28;20042;-72
2022/04/04 12:50:24;;;;;;;;;;;8.80;99.90;;;;;;4996200;28;20053;-71
2022/04/04 12:53:08;;;;;;;15.98;4.25;;;8.80;99.90;;;;;;4995555;28;19922;-72
2022/04/04 12:55:36;;;;;;;8.25;3.60;;;8.70;99.90;;;;;;4994887;28;20375;-71
2022/04/04 12:58:24;;;;;;;16.75;4.60;;;8.80;99.90;;;;;;4995539;28;20122;-70
2022/04/04 13:00:53;;;;;;;10.45;3.45;;;8.80;99.90;;;;;;4995192;28;20044;-72
2022/04/04 13:03:28;;;;;;;11.95;4.22;;;8.80;99.90;;;;;;4978206;28;20153;-74
2022/04/04 13:05:56;;;;;;;11.35;4.05;;;8.90;99.90;;;;;;4995557;28;20053;-72
2022/04/04 13:08:29;;;;;;;10.35;4.32;;;8.90;99.90;;;;;;4977732;28;20054;-73
2022/04/04 13:11:02;;;;;;;12.32;4.70;;;8.80;99.90;;;;;;4985883;28;20050;-72
2022/04/04 13:13:31;;;;;;;14.50;4.85;;;8.90;99.90;;;;;;4990045;28;20052;-70
2022/04/04 13:15:57;;;;;;;17.60;5.18;;;8.80;99.90;;;;;;4993915;28;20109;-70
2022/04/04 13:18:24;;;;;;;;;;;8.80;99.90;;;;;;4977675;28;20500;-70
2022/04/04 13:20:50;;;;;;;19.08;6.95;;;8.90;99.90;;;;;;4995316;28;20382;-71
2022/04/04 13:23:16;;;;;;;16.90;6.00;;;9.40;99.90;;;;;;4993671;28;20050;-74
2022/04/04 13:25:43;;;;;;;;;;;8.90;99.90;;;;;;4978172;28;20456;-72
2022/04/04 13:28:10;;;;;;;11.30;4.65;;;8.90;99.90;;;;;;4995090;28;19921;-75
2022/04/04 13:30:37;;;;;;;10.70;4.20;;;9.00;99.90;;;;;;4994493;28;20502;-72
2022/04/04 13:33:02;;;;;;;17.00;5.55;;;9.00;99.90;;;;;;4978079;28;20134;-74